Latest Weather Observations for Sunshine Coast Airport

IDQ60901

Issued at 5:01 pm EST Saturday 28 January 2023 (issued every 10 minutes, with the page automatically refreshed every 10 minutes)

About weather observations | Map of Brisbane area stations | Latest observations for Brisbane area | Other Formats
Station Details ID: 040861 Name: SUNSHINE COAST AIRPORT Lat: -26.60 Lon: 153.09 Height: 3.42 m
Data from the previous 72 hours. | See also: Recent months at Sunshine Coast Airport
Date/Time
EST
Temp
°C
App
Temp
°C
Dew
Point
°C
Rel
Hum
%
Delta-T
°C
Wind Press
QNH
hPa
Press
MSL
hPa
Rain since
9am
mm
Dir  Spd
km/h
Gust
km/h
Spd
kts
Gust
kts
28/05:00pm 27.2 29.9 22.2 74 3.4 NE 11 15 6 8 1012.8 1012.8 0.0
28/04:30pm 27.1 28.9 21.8 73 3.5 ENE 15 20 8 11 1012.3 1012.3 0.0
28/04:00pm 27.2 28.2 21.7 72 3.7 E 19 24 10 13 1012.0 1012.0 0.0
28/03:30pm 27.2 27.5 21.5 71 3.8 ENE 22 28 12 15 1011.8 1011.8 0.0
28/03:00pm 28.0 27.1 20.6 64 4.9 E 26 33 14 18 1011.7 1011.7 0.0
28/02:30pm 29.9 29.9 21.0 59 5.9 ENE 22 30 12 16 1011.8 1011.8 0.0
28/02:00pm 29.5 30.0 22.0 64 5.1 ENE 22 30 12 16 1011.8 1011.8 0.0
28/01:30pm 28.6 29.0 23.1 72 3.8 E 26 32 14 17 1012.3 1012.3 0.0
28/01:00pm 29.7 31.0 23.4 69 4.3 E 22 28 12 15 1012.5 1012.5 0.0
28/12:30pm 28.7 29.6 22.7 70 4.1 ESE 22 32 12 17 1012.9 1012.9 0.0
28/12:00pm 29.1 30.5 23.5 72 3.9 E 22 26 12 14 1013.0 1013.0 0.0
28/11:30am 29.4 31.9 23.8 72 3.9 ENE 17 22 9 12 1013.2 1013.2 0.0
28/11:00am 28.3 30.3 23.0 73 3.6 ENE 17 20 9 11 1013.5 1013.5 0.0
28/10:30am 28.9 31.3 22.9 70 4.1 E 15 19 8 10 1013.9 1013.9 0.0
28/10:00am 28.4 31.0 22.6 71 3.9 ESE 13 17 7 9 1014.3 1014.3 0.0
28/09:30am 27.3 30.2 22.5 75 3.2 ESE 11 15 6 8 1014.5 1014.5 0.0
28/09:00am 27.9 30.9 23.3 76 3.1 ESE 13 17 7 9 1014.6 1014.6 0.0
28/08:30am 27.9 31.4 23.5 77 3.0 ESE 11 13 6 7 1014.6 1014.6 0.0
28/08:00am 28.2 32.9 23.3 75 3.4 SSW 4 9 2 5 1014.4 1014.4 0.0
28/07:30am 26.4 30.1 23.3 83 2.1 SW 9 13 5 7 1014.3 1014.3 0.0
28/07:00am 24.2 27.3 22.8 92 0.9 SW 11 15 6 8 1014.2 1014.2 0.0
28/06:30am 23.2 26.4 22.4 95 0.5 W 9 11 5 6 1013.6 1013.6 0.0
28/06:00am 22.2 25.2 21.2 94 0.7 WNW 7 9 4 5 1013.2 1013.2 0.0
28/05:30am 21.4 23.9 20.2 93 0.8 WSW 7 9 4 5 1012.7 1012.7 0.0
28/05:00am 21.8 24.7 20.6 93 0.8 SW 6 6 3 3 1012.5 1012.5 0.0
28/04:30am 22.3 25.2 21.1 93 0.8 W 7 11 4 6 1012.3 1012.3 0.0
28/04:00am 22.8 26.0 21.6 93 0.8 SSW 7 9 4 5 1012.0 1012.0 0.0
28/03:30am 23.2 26.8 22.0 93 0.8 W 6 7 3 4 1011.8 1011.8 0.0
28/03:00am 23.2 26.8 22.0 93 0.8 W 6 7 3 4 1012.1 1012.1 0.0
28/02:44am 23.2 26.6 22.0 93 0.8 W 7 9 4 5 1012.1 1012.1 0.0
28/02:30am 23.3 26.8 22.1 93 0.8 W 7 11 4 6 1012.2 1012.2 0.0
28/02:00am 23.2 26.6 22.0 93 0.8 WNW 7 9 4 5 1012.1 1012.1 0.0
28/01:30am 23.2 26.2 22.0 93 0.8 NW 9 11 5 6 1012.2 1012.2 0.0
28/01:00am 23.5 27.1 22.3 93 0.8 W 7 7 4 4 1012.5 1012.5 0.0
28/12:59am 23.5 27.1 22.3 93 0.8 W 7 9 4 5 1012.5 1012.5 0.0
28/12:30am 23.2 26.8 22.0 93 0.8 WNW 6 7 3 4 1012.5 1012.5 0.0
28/12:00am 23.2 27.9 22.0 93 0.8 CALM 0 9 0 5 1012.8 1012.8 0.0
 
Date/Time
EST
Temp
°C
App
Temp
°C
Dew
Point
°C
Rel
Hum
%
Delta-T
°C
Wind Press
QNH
hPa
Press
MSL
hPa
Rain since
9am
mm
Dir  Spd
km/h
Gust
km/h
Spd
kts
Gust
kts
27/11:30pm 24.0 28.3 22.6 92 0.9 NW 4 6 2 3 1013.3 1013.3 0.0
27/11:00pm 23.7 27.4 22.3 92 0.9 NW 6 7 3 4 1013.4 1013.4 0.0
27/10:30pm 23.6 27.3 22.2 92 0.9 NW 6 7 3 4 1013.2 1013.2 0.0
27/10:00pm 23.4 26.7 21.8 91 1.1 NW 7 7 4 4 1013.5 1013.5 0.0
27/09:30pm 23.5 26.8 21.8 90 1.1 NW 7 7 4 4 1013.2 1013.2 0.0
27/09:00pm 23.7 27.1 22.0 90 1.1 NW 7 9 4 5 1013.0 1013.0 0.0
27/08:30pm 23.6 27.0 21.7 89 1.3 NNW 6 7 3 4 1013.0 1013.0 0.0
27/08:00pm 24.1 27.5 22.0 88 1.4 N 7 9 4 5 1012.8 1012.8 0.0
27/07:30pm 24.7 28.2 22.2 86 1.7 N 7 9 4 5 1012.8 1012.8 0.0
27/07:00pm 25.1 28.3 22.4 85 1.8 N 9 15 5 8 1012.7 1012.7 0.0
27/06:30pm 25.5 28.0 21.8 80 2.5 N 11 17 6 9 1012.6 1012.6 0.0
27/06:00pm 25.9 27.0 22.0 79 2.6 NNE 19 24 10 13 1012.4 1012.4 0.0
27/05:30pm 26.0 27.4 22.5 81 2.4 NNE 19 24 10 13 1012.5 1012.5 0.0
27/05:00pm 26.3 27.6 22.6 80 2.5 NNE 20 24 11 13 1012.4 1012.4 0.0
27/04:30pm 27.2 30.2 23.4 80 2.6 ENE 13 17 7 9 1012.0 1012.0 0.0
27/04:00pm 27.4 29.3 22.8 76 3.1 SE 17 20 9 11 1011.8 1011.8 0.0
27/03:30pm 28.2 30.6 22.9 73 3.6 SE 15 20 8 11 1011.9 1011.9 0.0
27/03:00pm 28.0 29.8 22.5 72 3.7 SE 17 24 9 13 1012.2 1012.2 0.0
27/02:30pm 28.1 31.1 22.6 72 3.7 ESE 11 15 6 8 1012.4 1012.4 0.0
27/02:00pm 28.1 30.5 21.6 68 4.3 ESE 11 17 6 9 1012.8 1012.8 0.0
27/01:30pm 27.7 30.1 22.2 72 3.7 E 13 15 7 8 1013.3 1013.3 0.0
27/01:00pm 27.8 31.0 22.3 72 3.7 E 9 13 5 7 1013.6 1013.6 0.0
27/12:30pm 27.2 30.3 22.2 74 3.4 ESE 9 15 5 8 1013.9 1013.9 0.0
27/12:00pm 27.2 29.8 22.6 76 3.1 E 13 17 7 9 1014.2 1014.2 0.0
27/11:30am 27.0 30.5 22.8 78 2.8 E 9 13 5 7 1014.7 1014.7 0.0
27/11:00am 26.7 29.6 22.5 78 2.8 SE 11 15 6 8 1014.7 1014.7 0.0
27/10:30am 27.5 29.6 22.4 73 3.4 SE 15 20 8 11 1015.1 1015.0 0.0
27/10:00am 27.5 29.6 22.4 73 3.4 SSE 15 22 8 12 1015.0 1014.9 0.0
27/09:30am 27.5 30.6 22.2 73 3.6 E 9 13 5 7 1015.1 1015.0 0.0
27/09:00am 28.0 31.4 22.0 70 4.0 SSE 7 13 4 7 1015.3 1015.2 0.0
27/08:30am 27.4 30.9 21.9 72 3.7 WSW 6 7 3 4 1015.3 1015.2 0.0
27/08:00am 25.8 29.0 21.7 78 2.7 NW 7 11 4 6 1014.8 1014.8 0.0
27/07:30am 25.5 28.6 22.2 82 2.2 NNW 9 15 5 8 1014.3 1014.3 0.0
27/07:00am 24.9 28.1 22.4 86 1.7 NNW 9 13 5 7 1014.2 1014.2 0.0
27/06:30am 23.9 27.0 22.2 90 1.1 NNW 9 13 5 7 1013.9 1013.9 0.0
27/06:00am 23.4 26.3 21.8 91 1.1 NNW 9 13 5 7 1013.8 1013.8 0.0
27/05:30am 23.0 25.4 21.6 92 0.9 NNW 11 15 6 8 1013.4 1013.4 0.0
27/05:00am 22.7 25.1 21.5 93 0.8 NNW 11 13 6 7 1013.3 1013.3 0.0
27/04:30am 22.7 24.8 21.7 94 0.7 NNW 13 17 7 9 1013.0 1013.0 0.0
27/04:00am 22.3 24.6 21.3 94 0.7 NW 11 13 6 7 1012.8 1012.8 0.0
27/03:30am 22.4 25.5 21.4 94 0.7 NNW 7 7 4 4 1012.3 1012.3 0.0
27/03:00am 22.6 25.7 21.4 93 0.8 N 7 9 4 5 1011.9 1011.9 0.0
27/02:30am 22.6 25.3 21.4 93 0.8 NNW 9 11 5 6 1012.2 1012.2 0.0
27/02:00am 23.0 26.4 21.6 92 0.9 NNW 6 7 3 4 1012.6 1012.6 0.0
27/01:30am 23.6 28.3 22.0 91 1.1 CALM 0 4 0 2 1012.9 1012.9 0.0
27/01:00am 23.8 27.6 22.4 92 0.9 NW 6 7 3 4 1013.1 1013.1 0.0
27/12:30am 23.3 26.5 21.6 90 1.1 N 7 11 4 6 1013.2 1013.2 0.0
27/12:00am 23.6 26.9 21.9 90 1.1 N 7 9 4 5 1013.4 1013.4 0.0
 
Date/Time
EST
Temp
°C
App
Temp
°C
Dew
Point
°C
Rel
Hum
%
Delta-T
°C
Wind Press
QNH
hPa
Press
MSL
hPa
Rain since
9am
mm
Dir  Spd
km/h
Gust
km/h
Spd
kts
Gust
kts
26/11:30pm 23.6 26.6 22.0 91 1.1 NNW 9 13 5 7 1013.4 1013.4 0.0
26/11:00pm 23.6 26.6 21.9 90 1.1 NNW 9 13 5 7 1013.6 1013.6 0.0
26/10:30pm 24.0 26.3 22.1 89 1.3 NNW 13 15 7 8 1013.5 1013.5 0.0
26/10:00pm 24.4 27.1 22.1 87 1.5 NNW 11 15 6 8 1013.8 1013.8 0.0
26/09:30pm 24.7 27.6 22.4 87 1.5 NNW 11 15 6 8 1013.7 1013.7 0.0
26/09:00pm 25.2 27.2 22.3 84 1.9 NNW 15 22 8 12 1013.6 1013.6 0.0
26/08:30pm 25.3 27.5 22.6 85 1.8 N 15 22 8 12 1013.3 1013.3 0.0
26/08:00pm 25.2 27.6 22.3 84 1.9 N 13 19 7 10 1013.3 1013.3 0.0
26/07:30pm 25.8 27.6 22.5 82 2.2 N 17 22 9 12 1013.2 1013.2 0.0
26/07:00pm 25.9 27.7 22.6 82 2.2 N 17 24 9 13 1012.7 1012.7 0.0
26/06:30pm 26.1 27.4 22.6 81 2.4 NNE 20 28 11 15 1012.4 1012.4 0.0
26/06:00pm 26.7 27.0 22.3 77 3.0 NNE 24 30 13 16 1012.4 1012.4 0.0
26/05:30pm 27.1 27.3 22.7 77 3.0 NNE 26 32 14 17 1011.9 1011.9 0.0
26/05:00pm 27.7 29.0 23.3 77 3.0 NNE 22 30 12 16 1011.8 1011.8 0.0
26/04:30pm 27.5 29.0 23.1 77 3.0 NNE 20 30 11 16 1011.6 1011.6 0.0
26/04:00pm 27.5 28.3 22.4 73 3.4 NNE 22 32 12 17 1011.5 1011.5 0.0
26/03:30pm 28.0 28.8 23.2 75 3.3 NNE 24 32 13 17 1012.0 1012.0 0.0
26/03:00pm 29.1 29.6 23.3 71 4.0 NE 26 32 14 17 1012.1 1012.1 0.0
26/02:30pm 29.4 30.2 23.8 72 3.9 NE 26 32 14 17 1012.2 1012.2 0.0
26/02:00pm 29.5 30.2 23.7 71 4.0 NE 26 30 14 16 1012.5 1012.5 0.0
26/01:30pm 29.0 29.7 23.0 70 4.1 NE 24 30 13 16 1012.7 1012.7 0.0
26/01:00pm 29.3 30.2 23.3 70 4.1 NE 24 28 13 15 1013.0 1013.0 0.0
26/12:30pm 29.0 29.4 23.2 71 4.0 NE 26 30 14 16 1013.0 1013.0 0.0
26/12:00pm 28.8 29.5 23.0 71 4.0 NE 24 30 13 16 1013.2 1013.2 0.0
26/11:30am 29.3 30.2 23.3 70 4.1 NE 24 30 13 16 1013.4 1013.4 0.0
26/11:00am 29.4 30.7 23.4 70 4.1 NE 22 28 12 15 1013.8 1013.8 0.0
26/10:30am 28.8 29.8 22.8 70 4.1 NE 22 26 12 14 1013.8 1013.8 0.0
26/10:00am 28.6 30.1 23.1 72 3.8 NE 20 24 11 13 1013.8 1013.8 0.0
26/09:30am 27.9 30.5 23.3 76 3.1 NE 15 19 8 10 1014.2 1014.2 0.0
26/09:00am 27.9 30.8 23.1 75 3.3 NE 13 15 7 8 1014.2 1014.2 0.0
26/08:30am 27.7 30.8 22.9 75 3.3 ENE 11 13 6 7 1014.3 1014.3 0.0
26/08:00am 26.7 29.9 22.3 77 3.0 NW 9 13 5 7 1014.3 1014.3 0.0
26/07:30am 25.4 29.3 22.9 86 1.7 NW 7 9 4 5 1014.4 1014.4 0.0
26/07:00am 23.4 26.6 22.4 94 0.7 NW 9 11 5 6 1014.4 1014.4 0.0
26/06:30am 22.3 25.4 21.5 95 0.5 WNW 7 9 4 5 1014.2 1014.2 0.0
26/06:00am 21.2 23.8 20.4 95 0.5 NW 7 9 4 5 1013.9 1013.9 0.0
26/05:51am 21.1 23.8 20.3 95 0.5 NW 6 9 3 5 1013.8 1013.8 0.0
26/05:30am 20.2 22.5 19.4 95 0.5 WNW 6 7 3 4 1013.7 1013.7 0.0
26/05:22am 20.3 23.3 19.3 94 0.6 WNW 2 7 1 4 1013.7 1013.7 0.0
26/05:00am 21.0 24.1 20.2 95 0.5 WNW 4 7 2 4 1013.8 1013.8 0.0
26/04:30am 20.9 23.5 20.1 95 0.5 WNW 6 7 3 4 1013.4 1013.4 0.0
26/04:13am 21.0 24.8 20.2 95 0.5 CALM 0 0 0 0 1013.1 1013.1 0.0
26/04:00am 21.4 25.4 20.6 95 0.5 CALM 0 0 0 0 1013.1 1013.1 0.0
26/03:51am 21.5 25.6 20.7 95 0.5 CALM 0 0 0 0 1013.1 1013.1 0.0
26/03:30am 21.4 24.6 20.4 94 0.6 WNW 4 7 2 4 1012.8 1012.8 0.0
26/03:00am 21.4 23.6 20.4 94 0.6 WNW 9 9 5 5 1012.7 1012.7 0.0
26/02:30am 21.3 23.5 20.3 94 0.6 N 9 9 5 5 1012.5 1012.5 0.0
26/02:11am 21.8 24.8 20.8 94 0.6 N 6 7 3 4 1012.6 1012.6 0.0
26/02:00am 21.7 24.5 20.5 93 0.8 N 6 7 3 4 1012.7 1012.7 0.0
26/01:54am 21.8 24.7 20.6 93 0.8 N 6 7 3 4 1012.6 1012.6 0.0
26/01:30am 22.4 25.4 21.2 93 0.8 N 7 7 4 4 1012.6 1012.6 0.0
26/01:00am 22.6 26.2 21.2 92 0.9 NNW 4 6 2 3 1012.6 1012.6 0.0
26/12:30am 22.7 25.6 21.0 90 1.1 NNW 7 9 4 5 1012.6 1012.6 0.0
26/12:00am 23.2 26.4 21.6 91 1.1 NNW 7 9 4 5 1012.8 1012.8 0.0
 
Date/Time
EST
Temp
°C
App
Temp
°C
Dew
Point
°C
Rel
Hum
%
Delta-T
°C
Wind Press
QNH
hPa
Press
MSL
hPa
Rain since
9am
mm
Dir  Spd
km/h
Gust
km/h
Spd
kts
Gust
kts
25/11:30pm 23.2 25.2 21.5 90 1.1 N 13 17 7 9 1012.7 1012.7 0.0
25/11:00pm 23.3 26.1 21.6 90 1.1 NW 9 11 5 6 1013.1 1013.1 0.0
25/10:30pm 23.2 25.2 21.5 90 1.1 NNW 13 15 7 8 1013.0 1013.0 0.0
25/10:00pm 23.6 26.5 21.7 89 1.3 NNW 9 13 5 7 1013.1 1013.1 0.0
25/09:30pm 23.6 26.4 21.5 88 1.4 NNW 9 13 5 7 1013.2 1013.2 0.0
25/09:00pm 23.9 26.7 21.6 87 1.5 NNW 9 11 5 6 1013.2 1013.2 0.0
25/08:30pm 24.9 27.5 22.0 84 1.9 N 11 19 6 10 1013.2 1013.2 0.0
25/08:00pm 25.1 27.0 22.0 83 2.1 N 15 20 8 11 1012.7 1012.7 0.0
25/07:30pm 25.1 27.6 22.4 85 1.8 N 13 19 7 10 1012.3 1012.3 0.0
25/07:00pm 25.5 27.7 22.6 84 2.0 N 15 24 8 13 1012.1 1012.1 0.0
25/06:30pm 26.0 27.5 22.7 82 2.2 N 19 24 10 13 1011.7 1011.7 0.0
25/06:00pm 26.7 27.7 22.8 79 2.6 NNE 22 32 12 17 1011.3 1011.3 0.0
25/05:30pm 27.6 28.2 22.8 75 3.3 NNE 24 30 13 16 1010.8 1010.8 0.0

Latest Capital City Observations: Canberra | Sydney | Melbourne | Brisbane | Adelaide | Perth | Hobart | Darwin

Other formats

Comma delimited format used in spreadsheet applications
http://www.bom.gov.au/fwo/IDQ60901/IDQ60901.94569.axf

JavaScript Object Notation format (JSON) in row-major order
http://www.bom.gov.au/fwo/IDQ60901/IDQ60901.94569.json

Data quality

Most of these data are generated automatically and are frequently updated. Quality checks on data are not normally performed. It is possible for incorrect values to appear. Refer to information at About Latest Weather Observations and please check the disclaimer before using these data.